Atlantis Alvarado — 9HA2203 — position and weather

sailwx.info

Track history (hours):
 
Tides and Currents Weather Stations Pressure Air Temp Water Temp Dewpoint Dewpoint Depression Visibility Wind Speed Wind Dir Waves Ship Positions

Atlantis Alvarado

Last reported at 2017-Dec-14 18:30 UTC. Time now 2017-Dec-15 15:45 UTC.
Position N 48°56' W 005°10'.

Length 92 m; draft 4.9 m.

Type: Ship. MMSI: 248145000.

Date/timePositionNaut miles runAvg speedWind from/ knotsBaromVisibWave heightAir tempDewpointWater temp
2017-Dec-14 18:30N 48°56' W 005°10'4 7.3
2017-Dec-14 18:00N 48°55' W 005°16'5 7.7
2017-Dec-14 17:23N 48°53' W 005°23'4 7.8
2017-Dec-14 16:50N 48°52' W 005°29'3 7.3
2017-Dec-14 16:26N 48°51' W 005°33'3 5.7
2017-Dec-14 15:58N 48°48' W 005°35'6 6.1
2017-Dec-14 14:56N 48°43' W 005°39'  
2017-Dec-08 01:57N 39°15' W 009°51'511.9
2017-Dec-08 01:30N 39°10' W 009°51'612.0
2017-Dec-08 01:00N 39°04' W 009°51'611.7
2017-Dec-08 00:30N 38°58' W 009°51'611.4
2017-Dec-08 00:00N 38°53' W 009°51'611.6
2017-Dec-07 23:30N 38°47' W 009°51'611.6
2017-Dec-07 23:00N 38°41' W 009°51'611.5
2017-Dec-07 22:30N 38°35' W 009°49'611.6
2017-Dec-07 22:00N 38°30' W 009°47'611.7
2017-Dec-07 21:30N 38°24' W 009°46'611.5
2017-Dec-07 21:00N 38°18' W 009°44'711.8
2017-Dec-07 20:25N 38°12' W 009°42'512.0
2017-Dec-07 20:00N 38°07' W 009°41'611.8
2017-Dec-07 19:30N 38°01' W 009°39'611.8
2017-Dec-07 19:00N 37°55' W 009°37'611.3
2017-Dec-07 18:29N 37°50' W 009°36'611.4
2017-Dec-07 17:59N 37°44' W 009°34'611.6
2017-Dec-07 17:28N 37°38' W 009°33'3011.4
2017-Dec-07 14:50N 37°09' W 009°24'511.4
2017-Dec-07 14:25N 37°04' W 009°23'3310.7
2017-Dec-07 11:21N 36°41' W 008°54'411.8
2017-Dec-07 11:00N 36°39' W 008°50'  
Track history (hours):
 
Tides and Currents Weather Stations Pressure Air Temp Water Temp Dewpoint Dewpoint Depression Visibility Wind Speed Wind Dir Waves Ship Positions

Atlantis Alvarado

Last reported at 2017-Dec-14 18:30 UTC. Time now 2017-Dec-15 15:45 UTC.
Position N 48°56' W 005°10'.

Length 92 m; draft 4.9 m.

Type: Ship. MMSI: 248145000.

Date/timePositionNaut miles runAvg speedWind from/ knotsBaromVisibWave heightAir tempDewpointWater temp
2017-Dec-14 18:30N 48°56' W 005°10'4 7.3
2017-Dec-14 18:00N 48°55' W 005°16'5 7.7
2017-Dec-14 17:23N 48°53' W 005°23'4 7.8
2017-Dec-14 16:50N 48°52' W 005°29'3 7.3
2017-Dec-14 16:26N 48°51' W 005°33'3 5.7
2017-Dec-14 15:58N 48°48' W 005°35'6 6.1
2017-Dec-14 14:56N 48°43' W 005°39'  
2017-Dec-08 01:57N 39°15' W 009°51'511.9
2017-Dec-08 01:30N 39°10' W 009°51'612.0
2017-Dec-08 01:00N 39°04' W 009°51'611.7
2017-Dec-08 00:30N 38°58' W 009°51'611.4
2017-Dec-08 00:00N 38°53' W 009°51'611.6
2017-Dec-07 23:30N 38°47' W 009°51'611.6
2017-Dec-07 23:00N 38°41' W 009°51'611.5
2017-Dec-07 22:30N 38°35' W 009°49'611.6
2017-Dec-07 22:00N 38°30' W 009°47'611.7
2017-Dec-07 21:30N 38°24' W 009°46'611.5
2017-Dec-07 21:00N 38°18' W 009°44'711.8
2017-Dec-07 20:25N 38°12' W 009°42'512.0
2017-Dec-07 20:00N 38°07' W 009°41'611.8
2017-Dec-07 19:30N 38°01' W 009°39'611.8
2017-Dec-07 19:00N 37°55' W 009°37'611.3
2017-Dec-07 18:29N 37°50' W 009°36'611.4
2017-Dec-07 17:59N 37°44' W 009°34'611.6
2017-Dec-07 17:28N 37°38' W 009°33'3011.4
2017-Dec-07 14:50N 37°09' W 009°24'511.4
2017-Dec-07 14:25N 37°04' W 009°23'3310.7
2017-Dec-07 11:21N 36°41' W 008°54'411.8
2017-Dec-07 11:00N 36°39' W 008°50'  

Dump ship's entire track history